Time;durP1;ratioP1;P1;durP2;ratioP2;P2;SDS_P1;SDS_P2;PMS_P1;PMS_P2;Temp;Humidity;BMP_temperature;BMP_pressure;BME280_temperature;BME280_humidity;BME280_pressure;Samples;Min_cycle;Max_cycle;Signal;HPM_P1;HPM_P2
2024/03/13 00:01:43;;;;;;;1999.90;999.90;;;;;;;7.87;100.00;101232.88;10497917;28;20048;-74
2024/03/13 00:06:46;;;;;;;1999.90;999.90;;;;;;;7.98;100.00;101233.31;10497328;28;20436;-75
2024/03/13 00:11:49;;;;;;;1999.90;999.90;;;;;;;8.03;100.00;101229.66;10497444;28;20123;-75
2024/03/13 00:16:53;;;;;;;1999.90;999.90;;;;;;;8.05;100.00;101231.28;10497269;28;20045;-75
2024/03/13 00:21:56;;;;;;;1999.90;999.90;;;;;;;8.02;100.00;101233.16;10498532;28;20444;-75
2024/03/13 00:26:58;;;;;;;1999.90;999.90;;;;;;;8.13;100.00;101234.44;10497756;28;20080;-74
2024/03/13 00:32:00;;;;;;;1999.90;999.90;;;;;;;8.18;100.00;101232.50;10497355;28;20051;-74
2024/03/13 00:37:03;;;;;;;1999.90;999.90;;;;;;;8.17;100.00;101232.59;10496996;28;20076;-75
2024/03/13 00:42:06;;;;;;;1999.90;999.90;;;;;;;8.11;100.00;101248.47;10495682;28;20056;-74
2024/03/13 00:47:09;;;;;;;1999.90;999.90;;;;;;;8.32;100.00;101244.13;10496707;28;20049;-74
2024/03/13 00:52:11;;;;;;;1999.90;999.90;;;;;;;8.35;100.00;101239.66;10495683;28;20075;-74
2024/03/13 00:57:17;;;;;;;1999.90;999.90;;;;;;;8.13;100.00;101237.03;10497154;28;20056;-75
2024/03/13 01:02:23;;;;;;;1999.90;999.90;;;;;;;8.19;100.00;101243.78;10496554;28;20067;-75
2024/03/13 01:07:25;;;;;;;1999.90;999.90;;;;;;;8.14;100.00;101240.53;10496520;28;20048;-75
2024/03/13 01:12:28;;;;;;;1999.90;999.90;;;;;;;8.30;100.00;101244.19;10495237;28;20049;-74
2024/03/13 01:17:31;;;;;;;1999.90;999.90;;;;;;;8.49;100.00;101233.88;10496740;28;20119;-75
2024/03/13 01:22:34;;;;;;;1999.90;999.90;;;;;;;8.39;100.00;101235.16;10497848;28;20053;-74
2024/03/13 01:27:37;;;;;;;1999.90;999.90;;;;;;;8.46;100.00;101227.97;10502248;28;20400;-74
2024/03/13 01:32:43;;;;;;;1999.90;999.90;;;;;;;8.36;100.00;101230.91;10502620;28;20105;-74
2024/03/13 01:38:02;;;;;;;1999.90;999.90;;;;;;;8.38;100.00;101223.84;10502654;28;20052;-74
2024/03/13 01:59:20;;;;;;;1999.90;999.90;;;;;;;8.65;100.00;101209.75;10502488;28;20079;-74
2024/03/13 02:04:23;;;;;;;1999.90;999.90;;;;;;;8.54;100.00;101215.44;10502482;28;20048;-73
2024/03/13 02:09:26;;;;;;;1999.90;999.90;;;;;;;8.53;100.00;101211.97;10501184;28;20079;-74
2024/03/13 02:14:28;;;;;;;1999.90;999.90;;;;;;;8.66;100.00;101220.13;10502479;28;20123;-74
2024/03/13 02:19:40;;;;;;;1999.90;999.90;;;;;;;8.96;100.00;101213.63;10502382;28;20080;-74
2024/03/13 02:24:43;;;;;;;1999.90;999.90;;;;;;;8.83;100.00;101219.41;10501924;28;20048;-74
2024/03/13 02:29:47;;;;;;;1999.90;999.90;;;;;;;8.64;100.00;101214.13;10501628;28;20044;-74
2024/03/13 02:34:49;;;;;;;1999.90;999.90;;;;;;;8.71;100.00;101209.50;10501354;28;20055;-74
2024/03/13 02:39:52;;;;;;;1999.90;999.90;;;;;;;8.96;100.00;101213.63;10500043;28;20378;-74
2024/03/13 02:44:55;;;;;;;1999.90;999.90;;;;;;;8.76;100.00;101207.53;10500942;28;20060;-74
2024/03/13 02:49:58;;;;;;;1999.90;999.90;;;;;;;8.82;100.00;101224.69;10500327;28;20151;-74
2024/03/13 02:55:00;;;;;;;1999.90;999.90;;;;;;;8.84;100.00;101221.09;10500371;28;20493;-74
2024/03/13 03:00:06;;;;;;;1999.90;999.90;;;;;;;8.78;100.00;101217.91;10500905;28;20204;-74
2024/03/13 03:05:09;;;;;;;1999.90;999.90;;;;;;;8.90;100.00;101223.44;10499241;28;20124;-74
2024/03/13 03:10:11;;;;;;;1999.90;999.90;;;;;;;8.88;100.00;101225.28;10498637;28;20070;-74
2024/03/13 03:15:14;;;;;;;1999.90;999.90;;;;;;;9.07;100.00;101224.47;10499746;28;20132;-74
2024/03/13 03:20:16;;;;;;;1999.90;999.90;;;;;;;9.20;100.00;101209.09;10499630;28;20045;-74
2024/03/13 03:25:19;;;;;;;1999.90;999.90;;;;;;;9.33;100.00;101217.22;10499851;28;20127;-74
2024/03/13 03:30:21;;;;;;;1999.90;999.90;;;;;;;9.10;100.00;101224.34;10498075;28;20120;-75
2024/03/13 03:35:24;;;;;;;1999.90;999.90;;;;;;;9.25;100.00;101235.88;10499350;28;20128;-74
2024/03/13 03:40:30;;;;;;;1999.90;999.90;;;;;;;9.25;100.00;101228.03;10498948;28;20080;-74
2024/03/13 03:45:32;;;;;;;1999.90;999.90;;;;;;;9.25;100.00;101231.47;10497125;28;20059;-74
2024/03/13 03:50:35;;;;;;;1999.90;999.90;;;;;;;9.38;100.00;101231.78;10497540;28;20087;-74
2024/03/13 03:55:38;;;;;;;1999.90;999.90;;;;;;;9.25;100.00;101247.16;10497948;28;20132;-75
2024/03/13 04:00:40;;;;;;;1999.90;999.90;;;;;;;9.46;100.00;101239.25;10497982;28;20474;-74
2024/03/13 04:05:42;;;;;;;1999.90;999.90;;;;;;;9.42;100.00;101237.72;10497235;28;20059;-75
2024/03/13 04:10:45;;;;;;;1999.90;999.90;;;;;;;9.50;100.00;101248.69;10496534;28;20059;-75
2024/03/13 04:15:47;;;;;;;1999.90;999.90;;;;;;;9.39;100.00;101256.97;10497615;28;20051;-74
2024/03/13 04:20:50;;;;;;;1999.90;999.90;;;;;;;9.62;100.00;101250.72;10495955;28;20072;-74
2024/03/13 04:25:53;;;;;;;1999.90;999.90;;;;;;;9.43;100.00;101262.91;10496368;28;20553;-74
2024/03/13 04:30:55;;;;;;;1999.90;999.90;;;;;;;9.55;100.00;101264.13;10479373;28;20386;-75
2024/03/13 04:35:58;;;;;;;1999.90;999.90;;;;;;;9.54;100.00;101265.06;10497450;28;20106;-74
2024/03/13 04:41:00;;;;;;;1999.90;999.90;;;;;;;9.44;100.00;101264.63;10497263;28;20102;-75
2024/03/13 04:46:03;;;;;;;1999.90;999.90;;;;;;;9.53;100.00;101277.28;10495756;28;20123;-74
2024/03/13 04:51:07;;;;;;;1999.90;999.90;;;;;;;9.57;100.00;101278.84;10495461;28;20083;-75
2024/03/13 04:56:13;;;;;;;1999.90;999.90;;;;;;;9.67;100.00;101274.03;10496040;28;20214;-75
2024/03/13 05:01:18;;;;;;;1999.90;999.90;;;;;;;9.71;100.00;101275.59;10505107;28;20503;-75
2024/03/13 05:06:21;;;;;;;1999.90;999.90;;;;;;;9.84;100.00;101276.72;10504901;28;20416;-74
2024/03/13 05:11:24;;;;;;;1999.90;999.90;;;;;;;9.64;100.00;101280.25;10504399;28;20066;-75
2024/03/13 05:16:26;;;;;;;1999.90;999.90;;;;;;;9.68;100.00;101278.34;10504625;28;20489;-75
2024/03/13 05:21:29;;;;;;;1999.90;999.90;;;;;;;9.73;100.00;101285.97;10504390;28;20059;-74
2024/03/13 05:26:33;;;;;;;1999.90;999.90;;;;;;;9.76;100.00;101288.44;10502643;28;20052;-75
2024/03/13 05:31:36;;;;;;;1999.90;999.90;;;;;;;9.83;100.00;101290.72;10502823;28;20056;-75
2024/03/13 05:36:39;;;;;;;1999.90;999.90;;;;;;;9.79;100.00;101299.63;10503987;28;20055;-74
2024/03/13 05:41:45;;;;;;;1999.90;999.90;;;;;;;9.86;100.00;101306.25;10502061;28;20053;-74
2024/03/13 05:46:48;;;;;;;1999.90;999.90;;;;;;;9.81;100.00;101312.63;10502408;28;20049;-73
2024/03/13 05:51:54;;;;;;;1999.90;999.90;;;;;;;9.93;100.00;101311.22;10501930;28;20053;-74
2024/03/13 05:56:58;;;;;;;1999.90;999.90;;;;;;;9.96;100.00;101306.69;10485782;28;20044;-74
2024/03/13 06:02:00;;;;;;;1999.90;999.90;;;;;;;9.86;100.00;101308.88;10501942;28;20072;-74
2024/03/13 06:07:03;;;;;;;1999.90;999.90;;;;;;;10.00;100.00;101313.47;10500999;28;20048;-74
2024/03/13 06:12:06;;;;;;;1999.90;999.90;;;;;;;10.08;100.00;101320.94;10500527;28;20055;-75
2024/03/13 06:17:08;;;;;;;1999.90;999.90;;;;;;;10.08;100.00;101320.94;10500862;28;20102;-75
2024/03/13 06:22:11;;;;;;;1999.90;999.90;;;;;;;10.21;100.00;101316.84;10502334;28;20110;-74
2024/03/13 06:27:15;;;;;;;1999.90;999.90;;;;;;;10.25;100.00;101325.38;10501446;28;20049;-75
2024/03/13 06:32:17;;;;;;;1999.90;999.90;;;;;;;10.15;100.00;101324.13;10501585;28;20547;-75
2024/03/13 06:37:20;;;;;;;1999.90;999.90;;;;;;;10.16;100.00;101324.06;10501501;28;20072;-75
2024/03/13 06:42:26;;;;;;;1999.90;999.90;;;;;;;10.33;100.00;101322.44;10501330;28;20055;-76
2024/03/13 06:47:29;;;;;;;1999.90;999.90;;;;;;;10.20;100.00;101327.38;10500974;28;20051;-75
2024/03/13 06:52:32;;;;;;;1999.90;999.90;;;;;;;10.23;100.00;101328.06;10500844;28;20095;-75
2024/03/13 06:57:34;;;;;;;1999.90;999.90;;;;;;;10.28;100.00;101330.47;10499771;28;20045;-75
2024/03/13 07:02:38;;;;;;;1999.90;999.90;;;;;;;10.40;100.00;101326.44;10500220;28;20056;-75
2024/03/13 07:07:42;;;;;;;1999.90;999.90;;;;;;;10.39;100.00;101330.84;10498934;28;20131;-76
2024/03/13 07:12:44;;;;;;;1999.90;999.90;;;;;;;10.34;100.00;101335.47;10500081;28;20416;-75
2024/03/13 07:17:47;;;;;;;1999.90;999.90;;;;;;;10.27;100.00;101336.66;10499862;28;20058;-75
2024/03/13 07:22:49;;;;;;;1999.90;999.90;;;;;;;10.34;100.00;101339.81;10495763;28;20063;-73
2024/03/13 07:27:52;;;;;;;1999.90;999.90;;;;;;;10.32;100.00;101344.28;10473373;28;20450;-74
2024/03/13 07:32:54;;;;;;;1999.90;999.90;;;;;;;10.45;100.00;101350.63;10482081;28;20056;-74
2024/03/13 07:37:58;;;;;;;1999.90;999.90;;;;;;;10.50;100.00;101343.41;10473973;28;20440;-75
2024/03/13 07:43:00;;;;;;;1999.90;999.90;;;;;;;10.57;100.00;101351.81;10493819;28;20049;-74
2024/03/13 07:48:07;;;;;;;1999.90;999.90;;;;;;;10.61;100.00;101350.75;10499647;28;20066;-74
2024/03/13 07:53:10;;;;;;;1999.90;999.90;;;;;;;10.63;100.00;101361.16;10487338;28;20056;-75
2024/03/13 07:58:13;;;;;;;1999.90;999.90;;;;;;;10.77;100.00;101362.16;10480574;28;20067;-74
2024/03/13 08:03:16;;;;;;;1999.90;999.90;;;;;;;10.86;100.00;101363.50;10483580;28;20408;-73
2024/03/13 08:08:20;;;;;;;1999.90;999.90;;;;;;;10.72;100.00;101358.91;10500064;22;20065;-69
2024/03/13 08:13:40;;;;;;;1999.90;999.90;;;;;;;11.09;100.00;101364.13;10471440;28;20048;-70
2024/03/13 08:19:01;;;;;;;1999.90;999.90;;;;;;;10.93;100.00;101374.53;10472530;28;20457;-71
2024/03/13 08:24:22;;;;;;;1999.90;999.90;;;;;;;10.88;100.00;101379.16;10485743;28;20044;-68
2024/03/13 08:29:42;;;;;;;1999.90;999.90;;;;;;;11.05;100.00;101387.00;10470874;28;20040;-70
2024/03/13 08:35:03;;;;;;;1999.90;999.90;;;;;;;11.07;100.00;101385.16;10471065;28;20074;-75
2024/03/13 08:40:23;;;;;;;1999.90;999.90;;;;;;;11.40;100.00;101384.38;10467553;28;20044;-75
2024/03/13 08:45:43;;;;;;;1999.90;999.90;;;;;;;11.24;100.00;101389.53;10482721;28;20052;-74
2024/03/13 08:51:03;;;;;;;1999.90;999.90;;;;;;;11.09;100.00;101399.00;10482290;28;20053;-73
2024/03/13 08:56:23;;;;;;;1999.90;999.90;;;;;;;11.06;100.00;101411.44;10497193;28;20044;-73
2024/03/13 09:01:44;;;;;;;1999.90;999.90;;;;;;;11.18;100.00;101409.97;10481812;28;20050;-74
2024/03/13 09:07:03;;;;;;;1999.90;999.90;;;;;;;11.34;100.00;101408.28;10481847;28;20070;-73
2024/03/13 09:12:07;;;;;;;1999.90;999.90;;;;;;;11.26;100.00;101413.94;10478204;28;20131;-73
2024/03/13 09:17:10;;;;;;;1999.90;999.90;;;;;;;11.23;100.00;101416.69;10496687;28;20072;-73
2024/03/13 09:22:14;;;;;;;1999.90;999.90;;;;;;;11.41;100.00;101412.28;10458759;28;20090;-74
2024/03/13 09:27:17;;;;;;;1999.90;999.90;;;;;;;11.90;100.00;101408.88;10478176;28;20408;-74
2024/03/13 09:32:22;;;;;;;1999.90;999.90;;;;;;;11.74;100.00;101400.13;10478271;28;20048;-74
2024/03/13 09:37:26;;;;;;;1999.90;999.90;;;;;;;12.04;100.00;101409.03;10462454;28;20131;-74
2024/03/13 09:42:29;;;;;;;1999.90;999.90;;;;;;;12.16;100.00;101406.66;10478719;28;20067;-74
2024/03/13 09:47:32;;;;;;;1999.90;999.90;;;;;;;12.24;100.00;101402.69;10463984;28;20041;-73
2024/03/13 09:52:34;;;;;;;1999.90;999.90;;;;;;;12.23;100.00;101410.66;10485289;28;20136;-74
2024/03/13 09:57:38;;;;;;;1999.90;999.90;;;;;;;12.44;100.00;101411.25;10485405;28;20040;-74
2024/03/13 10:02:51;;;;;;;1999.90;999.90;;;;;;;11.89;100.00;101418.53;10485409;28;20057;-74
2024/03/13 10:07:56;;;;;;;1999.90;999.90;;;;;;;11.94;100.00;101425.34;10485077;28;20049;-75
2024/03/13 10:13:01;;;;;;;1999.90;999.90;;;;;;;11.83;100.00;101428.50;10484789;28;20492;-74
2024/03/13 10:18:14;;;;;;;1999.90;999.90;;;;;;;12.26;100.00;101421.81;10484680;28;20056;-75
2024/03/13 10:23:20;;;;;;;1999.90;999.90;;;;;;;12.22;100.00;101420.31;10483927;28;20053;-75
2024/03/13 10:28:23;;;;;;;1999.90;999.90;;;;;;;11.63;100.00;101427.78;10484313;28;20102;-75
2024/03/13 10:33:26;;;;;;;1999.90;999.90;;;;;;;11.83;100.00;101431.94;10483352;28;20454;-75
2024/03/13 10:38:33;;;;;;;1999.90;999.90;;;;;;;11.60;100.00;101446.28;10483854;28;20084;-75
2024/03/13 10:43:35;;;;;;;1999.90;999.90;;;;;;;11.26;100.00;101447.13;10501241;28;20405;-74
2024/03/13 10:48:41;;;;;;;1999.90;999.90;;;;;;;11.55;100.00;101450.06;10500876;28;20041;-75
2024/03/13 10:53:44;;;;;;;1999.90;999.90;;;;;;;11.45;100.00;101457.56;10483535;28;20451;-75
2024/03/13 10:58:47;;;;;;;1999.90;999.90;;;;;;;11.39;100.00;101461.31;10482241;28;20049;-75
2024/03/13 11:04:00;;;;;;;1999.90;999.90;;;;;;;11.73;100.00;101461.38;10455360;28;20053;-75
2024/03/13 11:09:05;;;;;;;1999.90;999.90;;;;;;;11.86;100.00;101455.41;10469755;28;20068;-75
2024/03/13 11:14:10;;;;;;;1999.90;999.90;;;;;;;11.76;100.00;101448.94;10482160;28;20489;-75
2024/03/13 11:19:14;;;;;;;1999.90;999.90;;;;;;;11.94;100.00;101448.97;10482044;28;20548;-75
2024/03/13 11:24:25;;;;;;;1999.90;999.90;;;;;;;11.94;100.00;101444.56;10481802;28;20423;-75
2024/03/13 11:29:34;;;;;;;1999.90;999.90;;;;;;;11.90;100.00;101449.09;10451491;28;20040;-75
2024/03/13 11:34:38;;;;;;;1999.90;999.90;;;;;;;11.74;100.00;101456.06;10481516;28;20052;-74
2024/03/13 11:39:42;;;;;;;1999.90;999.90;;;;;;;11.72;100.00;101452.69;10480842;28;20086;-75
2024/03/13 11:44:51;;;;;;;1999.90;999.90;;;;;;;12.07;100.00;101445.59;10498368;28;20461;-74
2024/03/13 11:49:59;;;;;;;1999.90;999.90;;;;;;;12.26;100.00;101445.44;10498000;28;20052;-75
2024/03/13 11:55:02;;;;;;;1999.90;999.90;;;;;;;12.19;100.00;101428.34;10480278;28;20468;-75
2024/03/13 12:00:06;;;;;;;1999.90;999.90;;;;;;;12.49;100.00;101432.88;10480295;28;20084;-75
2024/03/13 12:05:10;;;;;;;1999.90;999.90;;;;;;;12.08;100.00;101423.66;10479694;28;20489;-74
2024/03/13 12:10:19;;;;;;;1999.90;999.90;;;;;;;12.37;100.00;101418.63;10464029;28;20477;-74
2024/03/13 12:15:24;;;;;;;1999.90;999.90;;;;;;;12.62;100.00;101420.75;10480686;28;20044;-74
2024/03/13 12:20:34;;;;;;;1999.90;999.90;;;;;;;11.90;100.00;101421.97;10479858;28;20040;-74
2024/03/13 12:25:37;;;;;;;1999.90;999.90;;;;;;;12.00;100.00;101425.88;10480738;28;20044;-74
2024/03/13 12:30:39;;;;;;;1999.90;999.90;;;;;;;12.01;100.00;101419.69;10479294;28;20412;-75
2024/03/13 12:35:49;;;;;;;1999.90;999.90;;;;;;;12.37;100.00;101423.00;10479695;28;20468;-74
2024/03/13 12:40:52;;;;;;;1999.90;999.90;;;;;;;12.10;100.00;101414.88;10479270;28;20063;-75
2024/03/13 12:45:55;;;;;;;1999.90;999.90;;;;;;;11.97;100.00;101412.91;10479175;28;20091;-74
2024/03/13 12:50:58;;;;;;;1999.90;999.90;;;;;;;11.98;100.00;101419.84;10479196;28;20087;-75
2024/03/13 12:56:00;;;;;;;1999.90;999.90;;;;;;;12.07;100.00;101408.84;10479313;28;20060;-75
2024/03/13 13:01:04;;;;;;;1999.90;999.90;;;;;;;12.50;100.00;101407.44;10478547;28;20127;-75
2024/03/13 13:06:16;;;;;;;1999.90;999.90;;;;;;;12.33;100.00;101405.75;10456194;28;20123;-75
2024/03/13 13:11:20;;;;;;;1999.90;999.90;;;;;;;12.87;100.00;101400.94;10413569;28;20052;-75
2024/03/13 13:16:23;;;;;;;1999.90;999.90;;;;;;;12.80;100.00;101392.56;10412333;28;20422;-75
2024/03/13 13:21:27;;;;;;;1999.90;999.90;;;;;;;12.79;100.00;101404.03;10403062;28;20128;-75
2024/03/13 13:26:30;;;;;;;1999.90;999.90;;;;;;;12.52;100.00;101403.78;10420011;28;20128;-75
2024/03/13 13:31:32;;;;;;;1999.90;999.90;;;;;;;12.57;100.00;101406.16;10421127;28;20079;-75
2024/03/13 13:36:35;;;;;;;1999.90;999.90;;;;;;;12.59;100.00;101401.66;10419773;28;20049;-75
2024/03/13 13:41:38;;;;;;;1999.90;999.90;;;;;;;12.41;100.00;101409.63;10406061;28;20049;-75
2024/03/13 13:46:40;;;;;;;1999.90;999.90;;;;;;;12.42;100.00;101411.34;10419191;28;20458;-75
2024/03/13 13:51:42;;;;;;;1999.90;999.90;;;;;;;12.24;100.00;101410.56;10419300;28;20125;-76
2024/03/13 13:56:45;;;;;;;1999.90;999.90;;;;;;;12.25;100.00;101403.53;10419102;28;20137;-76
2024/03/13 14:01:49;;;;;;;1999.90;999.90;;;;;;;12.69;100.00;101400.19;10418694;28;20046;-75
2024/03/13 14:06:52;;;;;;;1999.90;999.90;;;;;;;12.85;100.00;101397.56;10429299;28;20048;-76
2024/03/13 14:11:54;;;;;;;1999.90;999.90;;;;;;;12.43;100.00;101394.63;10484703;28;20466;-76
2024/03/13 14:16:57;;;;;;;1999.90;999.90;;;;;;;12.60;100.00;101395.47;10467042;28;20094;-76
2024/03/13 14:22:00;;;;;;;1999.90;999.90;;;;;;;12.98;100.00;101393.28;10484463;28;20127;-76
2024/03/13 14:27:03;;;;;;;1999.90;999.90;;;;;;;12.61;100.00;101398.03;10484089;28;20048;-69
2024/03/13 14:32:08;;;;;;;1999.90;999.90;;;;;;;12.51;100.00;101398.59;10483687;28;20045;-76
2024/03/13 14:37:14;;;;;;;1999.90;999.90;;;;;;;12.47;100.00;101387.44;10461397;28;20049;-76
2024/03/13 14:42:16;;;;;;;1999.90;999.90;;;;;;;12.74;100.00;101395.56;10501313;28;20040;-69
2024/03/13 14:47:29;;;;;;;1999.90;999.90;;;;;;;12.78;100.00;101390.97;10500800;28;20128;-76
2024/03/13 14:52:32;;;;;;;1999.90;999.90;;;;;;;12.73;100.00;101390.38;10460670;28;20048;-76
2024/03/13 14:57:36;;;;;;;1999.90;999.90;;;;;;;12.70;100.00;101399.28;10483490;28;20045;-76
2024/03/13 15:02:38;;;;;;;1999.90;999.90;;;;;;;12.62;100.00;101398.84;10459466;28;20040;-76
2024/03/13 15:07:41;;;;;;;1999.90;999.90;;;;;;;12.66;100.00;101378.50;10482275;28;20056;-76
2024/03/13 15:12:44;;;;;;;1999.90;999.90;;;;;;;13.07;100.00;101383.19;10482146;28;20049;-76
2024/03/13 15:17:47;;;;;;;1999.90;999.90;;;;;;;13.00;100.00;101382.69;10482513;28;20452;-76
2024/03/13 15:22:54;;;;;;;1999.90;999.90;;;;;;;13.13;100.00;101378.41;10482808;28;20106;-76
2024/03/13 15:27:56;;;;;;;1999.90;999.90;;;;;;;12.72;100.00;101375.53;10453281;28;20174;-75
2024/03/13 15:33:03;;;;;;;1999.90;999.90;;;;;;;12.81;100.00;101386.38;10481132;28;20455;-76
2024/03/13 15:38:06;;;;;;;1999.90;999.90;;;;;;;13.13;100.00;101380.16;10481848;28;20052;-76
2024/03/13 15:43:13;;;;;;;1999.90;999.90;;;;;;;12.74;100.00;101384.19;10480866;28;20052;-76
2024/03/13 15:48:15;;;;;;;1999.90;999.90;;;;;;;12.53;100.00;101387.09;10481587;28;20052;-76
2024/03/13 15:53:18;;;;;;;1999.90;999.90;;;;;;;12.54;100.00;101386.16;10480442;28;20485;-76
2024/03/13 15:58:20;;;;;;;1999.90;999.90;;;;;;;12.39;100.00;101385.25;10480403;28;20072;-76
2024/03/13 16:03:23;;;;;;;1999.90;999.90;;;;;;;12.37;100.00;101381.00;10463762;28;20465;-76
2024/03/13 16:08:32;;;;;;;1999.90;999.90;;;;;;;12.32;100.00;101390.91;10497433;28;20588;-76
2024/03/13 16:13:35;;;;;;;1999.90;999.90;;;;;;;12.56;100.00;101375.59;10462525;28;20429;-76
2024/03/13 16:18:37;;;;;;;1999.90;999.90;;;;;;;12.30;100.00;101393.63;10479683;28;20051;-76
2024/03/13 16:23:40;;;;;;;1999.90;999.90;;;;;;;12.45;100.00;101384.03;10457790;28;20068;-76
2024/03/13 16:28:43;;;;;;;1999.90;999.90;;;;;;;12.53;100.00;101386.25;10479717;28;20048;-76
2024/03/13 16:33:45;;;;;;;1999.90;999.90;;;;;;;12.36;100.00;101385.41;10456304;28;20057;-76
2024/03/13 16:38:48;;;;;;;1999.90;999.90;;;;;;;12.32;100.00;101394.38;10456313;28;20048;-75
2024/03/13 16:43:51;;;;;;;1999.90;999.90;;;;;;;12.30;100.00;101398.03;10456066;28;20056;-75
2024/03/13 16:48:54;;;;;;;1999.90;999.90;;;;;;;12.66;100.00;101397.75;10479157;28;20131;-76
2024/03/13 16:53:57;;;;;;;1999.90;999.90;;;;;;;12.34;100.00;101395.16;10483659;28;20080;-75
2024/03/13 16:58:59;;;;;;;1999.90;999.90;;;;;;;12.37;100.00;101388.88;10487585;28;20131;-76
2024/03/13 17:04:01;;;;;;;1999.90;999.90;;;;;;;12.24;100.00;101400.06;10504720;28;20455;-75
2024/03/13 17:09:14;;;;;;;1999.90;999.90;;;;;;;12.30;100.00;101404.13;10460727;28;20060;-76
2024/03/13 17:14:16;;;;;;;1999.90;999.90;;;;;;;12.27;100.00;101404.28;10488602;28;20044;-76
2024/03/13 17:19:21;;;;;;;1999.90;999.90;;;;;;;12.38;100.00;101401.94;10486811;28;20075;-76
2024/03/13 17:24:24;;;;;;;1999.90;999.90;;;;;;;11.98;100.00;101406.72;10486799;28;20060;-76
2024/03/13 17:29:26;;;;;;;1999.90;999.90;;;;;;;12.30;100.00;101414.63;10455617;28;20478;-76
2024/03/13 17:34:33;;;;;;;1999.90;999.90;;;;;;;12.18;100.00;101410.06;10486750;28;20045;-76
2024/03/13 17:39:36;;;;;;;1999.90;999.90;;;;;;;12.11;100.00;101409.53;10486573;28;20060;-76
2024/03/13 17:44:38;;;;;;;1999.90;999.90;;;;;;;12.14;100.00;101414.63;10485384;28;20098;-76
2024/03/13 17:49:41;;;;;;;1999.90;999.90;;;;;;;11.85;100.00;101418.75;10485567;28;20056;-76
2024/03/13 17:54:43;;;;;;;1999.90;999.90;;;;;;;11.97;100.00;101417.28;10485515;28;20143;-76
2024/03/13 17:59:47;;;;;;;1999.90;999.90;;;;;;;11.70;100.00;101415.16;10502562;28;20040;-76
2024/03/13 18:04:50;;;;;;;1999.90;999.90;;;;;;;11.70;100.00;101423.91;10465001;28;20058;-76
2024/03/13 18:09:52;;;;;;;1999.90;999.90;;;;;;;11.78;100.00;101425.25;10484452;28;20139;-76
2024/03/13 18:14:54;;;;;;;1999.90;999.90;;;;;;;11.34;100.00;101426.63;10484659;28;20045;-76
2024/03/13 18:19:57;;;;;;;1999.90;999.90;;;;;;;11.42;100.00;101426.25;10484206;28;20054;-75
2024/03/13 18:24:59;;;;;;;1999.90;999.90;;;;;;;11.43;100.00;101435.78;10484013;28;20382;-75
2024/03/13 18:30:08;;;;;;;1999.90;999.90;;;;;;;11.48;100.00;101429.41;10483837;28;20051;-76
2024/03/13 18:35:11;;;;;;;1999.90;999.90;;;;;;;11.55;100.00;101429.06;10458836;28;20109;-76
2024/03/13 18:40:15;;;;;;;1999.90;999.90;;;;;;;11.29;100.00;101428.63;10483651;28;20136;-76
2024/03/13 18:45:18;;;;;;;1999.90;999.90;;;;;;;11.61;100.00;101428.78;10483343;28;20056;-75
2024/03/13 18:50:20;;;;;;;1999.90;999.90;;;;;;;11.41;100.00;101430.63;10456897;28;20040;-76
2024/03/13 18:55:25;;;;;;;1999.90;999.90;;;;;;;11.43;100.00;101422.69;10483093;28;20056;-76
2024/03/13 19:00:29;;;;;;;1999.90;999.90;;;;;;;11.44;100.00;101427.00;10483273;28;20040;-76
2024/03/13 19:05:31;;;;;;;1999.90;999.90;;;;;;;11.39;100.00;101427.25;10500623;28;20485;-75
2024/03/13 19:10:35;;;;;;;1999.90;999.90;;;;;;;11.57;100.00;101425.47;10451879;28;20421;-75
2024/03/13 19:15:37;;;;;;;1999.90;999.90;;;;;;;11.72;100.00;101421.19;10481127;28;20490;-76
2024/03/13 19:20:40;;;;;;;1999.90;999.90;;;;;;;11.69;100.00;101422.19;10482154;28;20051;-76
2024/03/13 19:25:42;;;;;;;1999.90;999.90;;;;;;;11.49;100.00;101420.59;10481667;28;20090;-75
2024/03/13 19:30:44;;;;;;;1999.90;999.90;;;;;;;11.81;100.00;101412.00;10481640;28;20516;-76
2024/03/13 19:35:49;;;;;;;1999.90;999.90;;;;;;;11.65;100.00;101412.81;10481612;28;20064;-76
2024/03/13 19:40:51;;;;;;;1999.90;999.90;;;;;;;11.48;100.00;101402.31;10481230;28;20052;-76
2024/03/13 19:45:54;;;;;;;1999.90;999.90;;;;;;;11.31;100.00;101408.44;10480994;28;20272;-76
2024/03/13 19:51:00;;;;;;;1999.90;999.90;;;;;;;11.31;100.00;101403.19;10463875;28;20481;-76
2024/03/13 19:56:04;;;;;;;1999.90;999.90;;;;;;;11.44;100.00;101404.25;10481201;28;20106;-76
2024/03/13 20:01:09;;;;;;;1999.90;999.90;;;;;;;11.63;100.00;101406.78;10498281;28;20093;-76
2024/03/13 20:06:12;;;;;;;1999.90;999.90;;;;;;;11.53;100.00;101410.78;10458299;28;20050;-76
2024/03/13 20:11:15;;;;;;;1999.90;999.90;;;;;;;11.59;100.00;101402.63;10479876;28;20036;-76
2024/03/13 20:16:20;;;;;;;1999.90;999.90;;;;;;;11.56;100.00;101399.31;10480513;28;20051;-76
2024/03/13 20:21:22;;;;;;;1999.90;999.90;;;;;;;11.31;100.00;101396.19;10471279;22;20048;-75
2024/03/13 20:26:26;;;;;;;1999.90;999.90;;;;;;;11.13;100.00;101392.72;10541303;28;20143;-76
2024/03/13 20:31:29;;;;;;;1999.90;999.90;;;;;;;11.22;100.00;101399.25;10560518;28;20080;-76
2024/03/13 20:36:36;;;;;;;1999.90;999.90;;;;;;;11.13;100.00;101397.13;10579588;28;20101;-75
2024/03/13 20:41:38;;;;;;;1999.90;999.90;;;;;;;10.94;100.00;101399.78;10565221;28;20523;-74
2024/03/13 20:46:40;;;;;;;1999.90;999.90;;;;;;;10.93;100.00;101400.72;10563039;28;20055;-76
2024/03/13 20:51:43;;;;;;;1999.90;999.90;;;;;;;11.00;100.00;101396.03;10579470;28;20044;-76
2024/03/13 20:56:46;;;;;;;1999.90;999.90;;;;;;;10.92;100.00;101393.78;10568207;28;20580;-76
2024/03/13 21:01:51;;;;;;;1999.90;999.90;;;;;;;11.13;100.00;101395.34;10577682;28;20050;-75
2024/03/13 21:06:53;;;;;;;1999.90;999.90;;;;;;;10.71;100.00;101396.53;10579246;28;20052;-76
2024/03/13 21:11:56;;;;;;;1999.90;999.90;;;;;;;10.94;100.00;101390.16;10579251;28;20078;-76
2024/03/13 21:16:59;;;;;;;1999.90;999.90;;;;;;;10.84;100.00;101395.91;10579014;28;20379;-76
2024/03/13 21:22:01;;;;;;;1999.90;999.90;;;;;;;10.74;100.00;101395.50;10562125;28;20138;-76
2024/03/13 21:27:04;;;;;;;1999.90;999.90;;;;;;;10.79;100.00;101385.66;10561765;28;20097;-76
2024/03/13 21:32:06;;;;;;;1999.90;999.90;;;;;;;10.90;100.00;101386.00;10563948;28;20060;-75
2024/03/13 21:37:09;;;;;;;1999.90;999.90;;;;;;;10.64;100.00;101381.16;10578508;28;20047;-76
2024/03/13 21:42:11;;;;;;;1999.90;999.90;;;;;;;10.78;100.00;101386.59;10584437;28;20043;-75
2024/03/13 21:47:14;;;;;;;1999.90;999.90;;;;;;;10.79;100.00;101369.94;10587710;28;20053;-76
2024/03/13 21:52:16;;;;;;;1999.90;999.90;;;;;;;10.48;100.00;101376.69;10586060;28;20092;-75
2024/03/13 21:57:19;;;;;;;1999.90;999.90;;;;;;;10.45;100.00;101376.81;10585895;28;20520;-75
2024/03/13 22:02:21;;;;;;;1999.90;999.90;;;;;;;10.32;100.00;101378.31;10585557;28;20118;-76
2024/03/13 22:07:24;;;;;;;1999.90;999.90;;;;;;;10.59;100.00;101377.03;10585565;28;20112;-75